sensor_id;sensor_type;location;lat;lon;timestamp;P1;durP1;ratioP1;P2;durP2;ratioP2
62740;SDS011;48790;55.656;37.702;2023-09-30T00:01:18;28.45;;;14.95;;
62740;SDS011;48790;55.656;37.702;2023-09-30T00:03:47;35.53;;;15.73;;
62740;SDS011;48790;55.656;37.702;2023-09-30T00:06:15;32.28;;;15.48;;
62740;SDS011;48790;55.656;37.702;2023-09-30T00:08:45;34.67;;;15.20;;
62740;SDS011;48790;55.656;37.702;2023-09-30T00:11:14;33.03;;;14.48;;
62740;SDS011;48790;55.656;37.702;2023-09-30T00:13:47;29.77;;;14.55;;
62740;SDS011;48790;55.656;37.702;2023-09-30T00:16:14;28.55;;;15.07;;
62740;SDS011;48790;55.656;37.702;2023-09-30T00:18:46;34.17;;;15.25;;
62740;SDS011;48790;55.656;37.702;2023-09-30T00:21:12;30.52;;;15.65;;
62740;SDS011;48790;55.656;37.702;2023-09-30T00:23:38;30.30;;;15.40;;
62740;SDS011;48790;55.656;37.702;2023-09-30T00:26:04;31.15;;;15.75;;
62740;SDS011;48790;55.656;37.702;2023-09-30T00:28:30;30.10;;;15.82;;
62740;SDS011;48790;55.656;37.702;2023-09-30T00:31:15;32.85;;;15.68;;
62740;SDS011;48790;55.656;37.702;2023-09-30T00:33:44;32.78;;;15.05;;
62740;SDS011;48790;55.656;37.702;2023-09-30T00:36:10;37.50;;;15.93;;
62740;SDS011;48790;55.656;37.702;2023-09-30T00:38:36;31.27;;;14.90;;
62740;SDS011;48790;55.656;37.702;2023-09-30T00:41:03;39.40;;;15.25;;
62740;SDS011;48790;55.656;37.702;2023-09-30T00:43:29;31.45;;;16.58;;
62740;SDS011;48790;55.656;37.702;2023-09-30T00:48:46;33.15;;;16.65;;
62740;SDS011;48790;55.656;37.702;2023-09-30T00:51:12;35.22;;;15.38;;
62740;SDS011;48790;55.656;37.702;2023-09-30T00:53:38;26.55;;;15.32;;
62740;SDS011;48790;55.656;37.702;2023-09-30T00:56:07;33.40;;;15.90;;
62740;SDS011;48790;55.656;37.702;2023-09-30T00:58:38;34.33;;;15.35;;
62740;SDS011;48790;55.656;37.702;2023-09-30T01:01:07;37.95;;;15.82;;
62740;SDS011;48790;55.656;37.702;2023-09-30T01:03:39;33.90;;;15.80;;
62740;SDS011;48790;55.656;37.702;2023-09-30T01:06:07;32.83;;;16.45;;
62740;SDS011;48790;55.656;37.702;2023-09-30T01:08:33;36.10;;;15.80;;
62740;SDS011;48790;55.656;37.702;2023-09-30T01:11:00;38.78;;;16.73;;
62740;SDS011;48790;55.656;37.702;2023-09-30T01:13:35;37.83;;;16.55;;
62740;SDS011;48790;55.656;37.702;2023-09-30T01:16:05;36.38;;;15.95;;
62740;SDS011;48790;55.656;37.702;2023-09-30T01:18:37;31.00;;;15.68;;
62740;SDS011;48790;55.656;37.702;2023-09-30T01:21:05;31.00;;;16.17;;
62740;SDS011;48790;55.656;37.702;2023-09-30T01:23:37;37.88;;;15.50;;
62740;SDS011;48790;55.656;37.702;2023-09-30T01:26:09;31.10;;;15.13;;
62740;SDS011;48790;55.656;37.702;2023-09-30T01:28:37;28.85;;;15.30;;
62740;SDS011;48790;55.656;37.702;2023-09-30T01:31:06;34.70;;;15.25;;
62740;SDS011;48790;55.656;37.702;2023-09-30T01:33:34;27.00;;;15.63;;
62740;SDS011;48790;55.656;37.702;2023-09-30T01:36:02;35.60;;;15.40;;
62740;SDS011;48790;55.656;37.702;2023-09-30T01:38:31;36.60;;;15.30;;
62740;SDS011;48790;55.656;37.702;2023-09-30T01:40:57;36.92;;;15.75;;
62740;SDS011;48790;55.656;37.702;2023-09-30T01:43:22;31.05;;;15.00;;
62740;SDS011;48790;55.656;37.702;2023-09-30T01:45:53;32.40;;;15.75;;
62740;SDS011;48790;55.656;37.702;2023-09-30T01:48:19;31.70;;;15.82;;
62740;SDS011;48790;55.656;37.702;2023-09-30T01:50:45;28.52;;;15.23;;
62740;SDS011;48790;55.656;37.702;2023-09-30T01:53:11;32.75;;;16.20;;
62740;SDS011;48790;55.656;37.702;2023-09-30T01:55:37;30.30;;;15.07;;
62740;SDS011;48790;55.656;37.702;2023-09-30T01:58:03;37.00;;;16.27;;
62740;SDS011;48790;55.656;37.702;2023-09-30T02:00:29;35.78;;;15.38;;
62740;SDS011;48790;55.656;37.702;2023-09-30T02:02:56;27.05;;;16.10;;
62740;SDS011;48790;55.656;37.702;2023-09-30T02:05:24;27.13;;;15.85;;
62740;SDS011;48790;55.656;37.702;2023-09-30T02:07:50;27.35;;;15.27;;
62740;SDS011;48790;55.656;37.702;2023-09-30T02:10:17;29.17;;;15.88;;
62740;SDS011;48790;55.656;37.702;2023-09-30T02:12:47;28.13;;;15.77;;
62740;SDS011;48790;55.656;37.702;2023-09-30T02:15:14;30.30;;;15.98;;
62740;SDS011;48790;55.656;37.702;2023-09-30T02:17:41;29.85;;;16.45;;
62740;SDS011;48790;55.656;37.702;2023-09-30T02:20:11;29.08;;;15.88;;
62740;SDS011;48790;55.656;37.702;2023-09-30T02:22:41;31.67;;;14.73;;
62740;SDS011;48790;55.656;37.702;2023-09-30T02:25:07;31.80;;;16.35;;
62740;SDS011;48790;55.656;37.702;2023-09-30T02:27:34;26.20;;;14.90;;
62740;SDS011;48790;55.656;37.702;2023-09-30T02:30:00;30.45;;;15.10;;
62740;SDS011;48790;55.656;37.702;2023-09-30T02:32:33;26.90;;;15.00;;
62740;SDS011;48790;55.656;37.702;2023-09-30T02:34:59;35.80;;;16.25;;
62740;SDS011;48790;55.656;37.702;2023-09-30T02:37:25;23.38;;;15.10;;
62740;SDS011;48790;55.656;37.702;2023-09-30T02:39:51;24.52;;;14.88;;
62740;SDS011;48790;55.656;37.702;2023-09-30T02:42:17;25.40;;;15.25;;
62740;SDS011;48790;55.656;37.702;2023-09-30T02:44:43;22.15;;;14.60;;
62740;SDS011;48790;55.656;37.702;2023-09-30T02:47:09;24.67;;;15.15;;
62740;SDS011;48790;55.656;37.702;2023-09-30T02:49:36;21.42;;;14.65;;
62740;SDS011;48790;55.656;37.702;2023-09-30T02:52:02;21.55;;;14.48;;
62740;SDS011;48790;55.656;37.702;2023-09-30T02:54:29;21.92;;;14.43;;
62740;SDS011;48790;55.656;37.702;2023-09-30T02:56:56;22.92;;;14.52;;
62740;SDS011;48790;55.656;37.702;2023-09-30T02:59:22;25.02;;;14.73;;
62740;SDS011;48790;55.656;37.702;2023-09-30T03:01:49;23.85;;;15.10;;
62740;SDS011;48790;55.656;37.702;2023-09-30T03:04:15;26.05;;;15.02;;
62740;SDS011;48790;55.656;37.702;2023-09-30T03:06:45;25.05;;;14.60;;
62740;SDS011;48790;55.656;37.702;2023-09-30T03:09:12;23.90;;;14.73;;
62740;SDS011;48790;55.656;37.702;2023-09-30T03:11:40;20.98;;;14.30;;
62740;SDS011;48790;55.656;37.702;2023-09-30T03:14:09;25.02;;;14.60;;
62740;SDS011;48790;55.656;37.702;2023-09-30T03:16:36;33.60;;;15.73;;
62740;SDS011;48790;55.656;37.702;2023-09-30T03:19:04;27.00;;;15.68;;
62740;SDS011;48790;55.656;37.702;2023-09-30T03:21:31;23.98;;;15.75;;
62740;SDS011;48790;55.656;37.702;2023-09-30T03:23:57;23.60;;;15.05;;
62740;SDS011;48790;55.656;37.702;2023-09-30T03:26:23;23.73;;;14.68;;
62740;SDS011;48790;55.656;37.702;2023-09-30T03:28:49;20.73;;;14.52;;
62740;SDS011;48790;55.656;37.702;2023-09-30T03:31:20;26.83;;;14.82;;
62740;SDS011;48790;55.656;37.702;2023-09-30T03:33:46;23.15;;;14.38;;
62740;SDS011;48790;55.656;37.702;2023-09-30T03:36:13;28.77;;;15.52;;
62740;SDS011;48790;55.656;37.702;2023-09-30T03:38:43;24.80;;;14.77;;
62740;SDS011;48790;55.656;37.702;2023-09-30T03:41:10;27.67;;;14.85;;
62740;SDS011;48790;55.656;37.702;2023-09-30T03:43:38;25.45;;;14.65;;
62740;SDS011;48790;55.656;37.702;2023-09-30T03:46:07;25.08;;;14.57;;
62740;SDS011;48790;55.656;37.702;2023-09-30T03:48:38;29.08;;;14.73;;
62740;SDS011;48790;55.656;37.702;2023-09-30T03:51:09;26.45;;;14.32;;
62740;SDS011;48790;55.656;37.702;2023-09-30T03:53:42;24.40;;;14.38;;
62740;SDS011;48790;55.656;37.702;2023-09-30T03:56:11;24.88;;;14.23;;
62740;SDS011;48790;55.656;37.702;2023-09-30T03:58:40;30.85;;;15.48;;
62740;SDS011;48790;55.656;37.702;2023-09-30T04:01:07;30.00;;;15.55;;
62740;SDS011;48790;55.656;37.702;2023-09-30T04:03:37;32.13;;;15.13;;
62740;SDS011;48790;55.656;37.702;2023-09-30T04:06:08;38.42;;;16.48;;
62740;SDS011;48790;55.656;37.702;2023-09-30T04:08:34;33.97;;;15.48;;
62740;SDS011;48790;55.656;37.702;2023-09-30T04:11:06;34.10;;;16.42;;
62740;SDS011;48790;55.656;37.702;2023-09-30T04:13:34;26.67;;;15.00;;
62740;SDS011;48790;55.656;37.702;2023-09-30T04:16:02;36.25;;;15.68;;
62740;SDS011;48790;55.656;37.702;2023-09-30T04:18:28;34.75;;;15.43;;
62740;SDS011;48790;55.656;37.702;2023-09-30T04:20:55;28.73;;;15.35;;
62740;SDS011;48790;55.656;37.702;2023-09-30T04:23:21;29.33;;;15.90;;
62740;SDS011;48790;55.656;37.702;2023-09-30T04:25:48;25.73;;;14.73;;
62740;SDS011;48790;55.656;37.702;2023-09-30T04:28:15;31.92;;;15.10;;
62740;SDS011;48790;55.656;37.702;2023-09-30T04:30:46;29.08;;;15.75;;
62740;SDS011;48790;55.656;37.702;2023-09-30T04:33:14;27.60;;;15.63;;
62740;SDS011;48790;55.656;37.702;2023-09-30T04:35:41;29.92;;;15.18;;
62740;SDS011;48790;55.656;37.702;2023-09-30T04:38:09;25.45;;;14.35;;
62740;SDS011;48790;55.656;37.702;2023-09-30T04:40:36;30.60;;;15.35;;
62740;SDS011;48790;55.656;37.702;2023-09-30T04:43:03;25.50;;;14.10;;
62740;SDS011;48790;55.656;37.702;2023-09-30T04:45:29;28.70;;;15.05;;
62740;SDS011;48790;55.656;37.702;2023-09-30T04:47:55;22.75;;;14.60;;
62740;SDS011;48790;55.656;37.702;2023-09-30T04:50:23;27.20;;;14.25;;
62740;SDS011;48790;55.656;37.702;2023-09-30T04:52:53;24.30;;;14.70;;
62740;SDS011;48790;55.656;37.702;2023-09-30T04:55:19;21.73;;;14.65;;
62740;SDS011;48790;55.656;37.702;2023-09-30T04:57:46;27.90;;;14.35;;
62740;SDS011;48790;55.656;37.702;2023-09-30T05:00:13;24.83;;;14.63;;
62740;SDS011;48790;55.656;37.702;2023-09-30T05:02:40;27.60;;;14.35;;
62740;SDS011;48790;55.656;37.702;2023-09-30T05:05:06;24.90;;;14.45;;
62740;SDS011;48790;55.656;37.702;2023-09-30T05:07:33;26.02;;;15.18;;
62740;SDS011;48790;55.656;37.702;2023-09-30T05:09:59;32.28;;;14.93;;
62740;SDS011;48790;55.656;37.702;2023-09-30T05:12:31;26.77;;;15.55;;
62740;SDS011;48790;55.656;37.702;2023-09-30T05:14:59;26.58;;;15.07;;
62740;SDS011;48790;55.656;37.702;2023-09-30T05:17:25;33.22;;;15.85;;
62740;SDS011;48790;55.656;37.702;2023-09-30T05:19:51;31.40;;;15.43;;
62740;SDS011;48790;55.656;37.702;2023-09-30T05:22:18;24.60;;;15.18;;
62740;SDS011;48790;55.656;37.702;2023-09-30T05:24:50;26.65;;;15.70;;
62740;SDS011;48790;55.656;37.702;2023-09-30T05:27:17;29.38;;;15.35;;
62740;SDS011;48790;55.656;37.702;2023-09-30T05:29:43;28.83;;;15.70;;
62740;SDS011;48790;55.656;37.702;2023-09-30T05:32:09;25.17;;;15.32;;
62740;SDS011;48790;55.656;37.702;2023-09-30T05:34:34;30.58;;;15.77;;
62740;SDS011;48790;55.656;37.702;2023-09-30T05:37:00;30.40;;;14.77;;
62740;SDS011;48790;55.656;37.702;2023-09-30T05:39:29;25.50;;;14.93;;
62740;SDS011;48790;55.656;37.702;2023-09-30T05:41:54;29.45;;;15.38;;
62740;SDS011;48790;55.656;37.702;2023-09-30T05:44:20;31.88;;;14.25;;
62740;SDS011;48790;55.656;37.702;2023-09-30T05:46:49;33.35;;;13.88;;
62740;SDS011;48790;55.656;37.702;2023-09-30T05:49:15;28.58;;;14.38;;
62740;SDS011;48790;55.656;37.702;2023-09-30T05:51:41;25.90;;;14.32;;
62740;SDS011;48790;55.656;37.702;2023-09-30T05:54:09;30.55;;;13.10;;
62740;SDS011;48790;55.656;37.702;2023-09-30T05:56:38;33.78;;;13.35;;
62740;SDS011;48790;55.656;37.702;2023-09-30T05:59:17;30.35;;;13.65;;
62740;SDS011;48790;55.656;37.702;2023-09-30T06:02:00;25.52;;;13.02;;
62740;SDS011;48790;55.656;37.702;2023-09-30T06:04:28;27.17;;;12.98;;
62740;SDS011;48790;55.656;37.702;2023-09-30T06:06:56;24.83;;;12.57;;
62740;SDS011;48790;55.656;37.702;2023-09-30T06:09:23;33.17;;;12.35;;
62740;SDS011;48790;55.656;37.702;2023-09-30T06:11:51;28.13;;;13.23;;
62740;SDS011;48790;55.656;37.702;2023-09-30T06:14:18;27.80;;;12.77;;
62740;SDS011;48790;55.656;37.702;2023-09-30T06:16:44;28.48;;;13.32;;
62740;SDS011;48790;55.656;37.702;2023-09-30T06:19:11;36.15;;;12.82;;
62740;SDS011;48790;55.656;37.702;2023-09-30T06:21:37;27.38;;;12.38;;
62740;SDS011;48790;55.656;37.702;2023-09-30T06:24:05;27.92;;;12.45;;
62740;SDS011;48790;55.656;37.702;2023-09-30T06:26:32;39.05;;;12.70;;
62740;SDS011;48790;55.656;37.702;2023-09-30T06:28:58;32.90;;;12.88;;
62740;SDS011;48790;55.656;37.702;2023-09-30T06:31:24;24.23;;;13.18;;
62740;SDS011;48790;55.656;37.702;2023-09-30T06:33:50;28.90;;;12.85;;
62740;SDS011;48790;55.656;37.702;2023-09-30T06:36:16;25.58;;;12.27;;
62740;SDS011;48790;55.656;37.702;2023-09-30T06:38:46;33.45;;;12.73;;
62740;SDS011;48790;55.656;37.702;2023-09-30T06:41:17;28.42;;;12.73;;
62740;SDS011;48790;55.656;37.702;2023-09-30T06:43:44;34.22;;;11.43;;
62740;SDS011;48790;55.656;37.702;2023-09-30T06:46:10;27.02;;;11.60;;
62740;SDS011;48790;55.656;37.702;2023-09-30T06:48:40;27.27;;;12.13;;
62740;SDS011;48790;55.656;37.702;2023-09-30T06:51:06;34.85;;;12.07;;
62740;SDS011;48790;55.656;37.702;2023-09-30T06:53:34;18.02;;;10.95;;
62740;SDS011;48790;55.656;37.702;2023-09-30T06:56:04;28.05;;;10.60;;
62740;SDS011;48790;55.656;37.702;2023-09-30T06:58:30;23.90;;;10.90;;
62740;SDS011;48790;55.656;37.702;2023-09-30T07:00:56;25.80;;;10.20;;
62740;SDS011;48790;55.656;37.702;2023-09-30T07:03:22;21.80;;;9.98;;
62740;SDS011;48790;55.656;37.702;2023-09-30T07:05:48;27.40;;;10.57;;
62740;SDS011;48790;55.656;37.702;2023-09-30T07:08:18;26.27;;;10.38;;
62740;SDS011;48790;55.656;37.702;2023-09-30T07:10:46;21.20;;;10.00;;
62740;SDS011;48790;55.656;37.702;2023-09-30T07:13:17;29.92;;;10.52;;
62740;SDS011;48790;55.656;37.702;2023-09-30T07:15:47;30.00;;;9.95;;
62740;SDS011;48790;55.656;37.702;2023-09-30T07:18:15;28.77;;;10.02;;
62740;SDS011;48790;55.656;37.702;2023-09-30T07:20:44;24.48;;;9.80;;
62740;SDS011;48790;55.656;37.702;2023-09-30T07:23:10;21.40;;;10.40;;
62740;SDS011;48790;55.656;37.702;2023-09-30T07:25:39;14.23;;;9.27;;
62740;SDS011;48790;55.656;37.702;2023-09-30T07:28:05;20.88;;;10.05;;
62740;SDS011;48790;55.656;37.702;2023-09-30T07:33:02;25.92;;;10.10;;
62740;SDS011;48790;55.656;37.702;2023-09-30T07:35:30;29.05;;;10.00;;
62740;SDS011;48790;55.656;37.702;2023-09-30T07:37:56;31.52;;;10.15;;
62740;SDS011;48790;55.656;37.702;2023-09-30T07:40:23;20.63;;;9.05;;
62740;SDS011;48790;55.656;37.702;2023-09-30T07:42:49;23.73;;;9.35;;
62740;SDS011;48790;55.656;37.702;2023-09-30T07:45:16;19.58;;;8.90;;
62740;SDS011;48790;55.656;37.702;2023-09-30T07:47:43;23.42;;;9.30;;
62740;SDS011;48790;55.656;37.702;2023-09-30T07:50:09;18.42;;;8.18;;
62740;SDS011;48790;55.656;37.702;2023-09-30T07:52:36;17.70;;;8.63;;
62740;SDS011;48790;55.656;37.702;2023-09-30T07:55:05;20.52;;;8.73;;
62740;SDS011;48790;55.656;37.702;2023-09-30T07:57:32;17.88;;;8.07;;
62740;SDS011;48790;55.656;37.702;2023-09-30T07:59:59;19.35;;;8.40;;
62740;SDS011;48790;55.656;37.702;2023-09-30T08:02:35;16.73;;;8.15;;
62740;SDS011;48790;55.656;37.702;2023-09-30T08:05:02;11.82;;;7.35;;
62740;SDS011;48790;55.656;37.702;2023-09-30T08:07:33;20.95;;;7.05;;
62740;SDS011;48790;55.656;37.702;2023-09-30T08:10:00;19.75;;;7.22;;
62740;SDS011;48790;55.656;37.702;2023-09-30T08:12:26;21.75;;;7.45;;
62740;SDS011;48790;55.656;37.702;2023-09-30T08:14:52;13.85;;;6.68;;
62740;SDS011;48790;55.656;37.702;2023-09-30T08:17:18;14.75;;;6.72;;
62740;SDS011;48790;55.656;37.702;2023-09-30T08:19:44;18.40;;;6.65;;
62740;SDS011;48790;55.656;37.702;2023-09-30T08:22:12;12.57;;;6.93;;
62740;SDS011;48790;55.656;37.702;2023-09-30T08:24:38;18.40;;;7.03;;
62740;SDS011;48790;55.656;37.702;2023-09-30T08:27:07;14.98;;;6.40;;
62740;SDS011;48790;55.656;37.702;2023-09-30T08:29:34;13.57;;;6.53;;
62740;SDS011;48790;55.656;37.702;2023-09-30T08:32:03;17.63;;;6.63;;
62740;SDS011;48790;55.656;37.702;2023-09-30T08:34:29;11.93;;;6.78;;
62740;SDS011;48790;55.656;37.702;2023-09-30T08:36:55;20.08;;;6.88;;
62740;SDS011;48790;55.656;37.702;2023-09-30T08:39:22;17.23;;;6.80;;
62740;SDS011;48790;55.656;37.702;2023-09-30T08:41:50;13.05;;;6.97;;
62740;SDS011;48790;55.656;37.702;2023-09-30T08:44:16;20.55;;;7.10;;
62740;SDS011;48790;55.656;37.702;2023-09-30T08:46:42;16.02;;;7.03;;
62740;SDS011;48790;55.656;37.702;2023-09-30T08:49:14;26.45;;;7.45;;
62740;SDS011;48790;55.656;37.702;2023-09-30T08:51:40;15.73;;;6.85;;
62740;SDS011;48790;55.656;37.702;2023-09-30T08:54:06;16.77;;;6.90;;
62740;SDS011;48790;55.656;37.702;2023-09-30T08:56:32;17.95;;;7.20;;
62740;SDS011;48790;55.656;37.702;2023-09-30T08:59:02;13.98;;;7.10;;
62740;SDS011;48790;55.656;37.702;2023-09-30T09:01:29;10.32;;;6.75;;
62740;SDS011;48790;55.656;37.702;2023-09-30T09:03:56;19.30;;;6.97;;
62740;SDS011;48790;55.656;37.702;2023-09-30T09:06:23;18.77;;;7.22;;
62740;SDS011;48790;55.656;37.702;2023-09-30T09:08:50;18.10;;;7.00;;
62740;SDS011;48790;55.656;37.702;2023-09-30T09:11:20;15.88;;;7.10;;
62740;SDS011;48790;55.656;37.702;2023-09-30T09:13:50;13.05;;;6.97;;
62740;SDS011;48790;55.656;37.702;2023-09-30T09:16:21;18.77;;;7.20;;
62740;SDS011;48790;55.656;37.702;2023-09-30T09:18:49;19.63;;;6.82;;
62740;SDS011;48790;55.656;37.702;2023-09-30T09:21:18;16.27;;;7.00;;
62740;SDS011;48790;55.656;37.702;2023-09-30T09:23:47;11.63;;;7.38;;
62740;SDS011;48790;55.656;37.702;2023-09-30T09:29:00;11.90;;;6.63;;
62740;SDS011;48790;55.656;37.702;2023-09-30T09:31:34;12.82;;;7.03;;
62740;SDS011;48790;55.656;37.702;2023-09-30T09:34:03;17.40;;;7.00;;
62740;SDS011;48790;55.656;37.702;2023-09-30T09:39:05;13.43;;;6.85;;
62740;SDS011;48790;55.656;37.702;2023-09-30T09:41:31;16.73;;;6.70;;
62740;SDS011;48790;55.656;37.702;2023-09-30T09:43:58;19.55;;;6.72;;
62740;SDS011;48790;55.656;37.702;2023-09-30T09:46:25;22.50;;;6.72;;
62740;SDS011;48790;55.656;37.702;2023-09-30T09:48:53;17.88;;;7.13;;
62740;SDS011;48790;55.656;37.702;2023-09-30T09:51:20;16.35;;;6.65;;
62740;SDS011;48790;55.656;37.702;2023-09-30T09:53:46;14.25;;;6.50;;
62740;SDS011;48790;55.656;37.702;2023-09-30T09:56:14;16.27;;;7.03;;
62740;SDS011;48790;55.656;37.702;2023-09-30T09:58:43;15.45;;;6.72;;
62740;SDS011;48790;55.656;37.702;2023-09-30T10:01:14;20.70;;;7.15;;
62740;SDS011;48790;55.656;37.702;2023-09-30T10:03:42;18.40;;;7.20;;
62740;SDS011;48790;55.656;37.702;2023-09-30T10:06:10;22.52;;;8.27;;
62740;SDS011;48790;55.656;37.702;2023-09-30T10:08:42;18.77;;;7.38;;
62740;SDS011;48790;55.656;37.702;2023-09-30T10:11:16;20.23;;;7.32;;
62740;SDS011;48790;55.656;37.702;2023-09-30T10:13:52;16.48;;;7.63;;
62740;SDS011;48790;55.656;37.702;2023-09-30T10:19:21;15.77;;;7.35;;
62740;SDS011;48790;55.656;37.702;2023-09-30T10:24:46;18.65;;;7.65;;
62740;SDS011;48790;55.656;37.702;2023-09-30T10:29:56;12.88;;;6.85;;
62740;SDS011;48790;55.656;37.702;2023-09-30T10:35:20;18.50;;;7.05;;
62740;SDS011;48790;55.656;37.702;2023-09-30T10:37:47;15.48;;;7.53;;
62740;SDS011;48790;55.656;37.702;2023-09-30T10:40:27;14.77;;;7.15;;
62740;SDS011;48790;55.656;37.702;2023-09-30T10:42:54;9.90;;;7.28;;
62740;SDS011;48790;55.656;37.702;2023-09-30T10:45:42;15.73;;;7.18;;
62740;SDS011;48790;55.656;37.702;2023-09-30T10:50:54;12.50;;;6.85;;
62740;SDS011;48790;55.656;37.702;2023-09-30T10:53:22;15.52;;;7.30;;
62740;SDS011;48790;55.656;37.702;2023-09-30T10:55:58;20.08;;;7.78;;
62740;SDS011;48790;55.656;37.702;2023-09-30T11:01:06;28.65;;;7.82;;
62740;SDS011;48790;55.656;37.702;2023-09-30T11:03:33;18.52;;;7.72;;
62740;SDS011;48790;55.656;37.702;2023-09-30T11:05:59;28.52;;;8.43;;
62740;SDS011;48790;55.656;37.702;2023-09-30T11:08:25;15.65;;;7.78;;
62740;SDS011;48790;55.656;37.702;2023-09-30T11:10:57;15.40;;;7.38;;
62740;SDS011;48790;55.656;37.702;2023-09-30T11:13:32;14.65;;;7.47;;
62740;SDS011;48790;55.656;37.702;2023-09-30T11:16:04;11.95;;;7.72;;
62740;SDS011;48790;55.656;37.702;2023-09-30T11:18:32;16.30;;;7.70;;
62740;SDS011;48790;55.656;37.702;2023-09-30T11:21:10;16.02;;;7.50;;
62740;SDS011;48790;55.656;37.702;2023-09-30T11:23:38;13.63;;;7.28;;
62740;SDS011;48790;55.656;37.702;2023-09-30T11:26:06;19.75;;;7.90;;
62740;SDS011;48790;55.656;37.702;2023-09-30T11:28:39;16.92;;;8.25;;
62740;SDS011;48790;55.656;37.702;2023-09-30T11:31:11;13.55;;;8.05;;
62740;SDS011;48790;55.656;37.702;2023-09-30T11:36:21;16.35;;;8.25;;
62740;SDS011;48790;55.656;37.702;2023-09-30T11:38:47;13.20;;;7.15;;
62740;SDS011;48790;55.656;37.702;2023-09-30T11:41:20;19.70;;;8.10;;
62740;SDS011;48790;55.656;37.702;2023-09-30T11:46:33;13.07;;;7.63;;
62740;SDS011;48790;55.656;37.702;2023-09-30T11:49:38;18.13;;;8.02;;
62740;SDS011;48790;55.656;37.702;2023-09-30T11:52:11;14.93;;;7.68;;
62740;SDS011;48790;55.656;37.702;2023-09-30T11:54:39;15.07;;;7.32;;
62740;SDS011;48790;55.656;37.702;2023-09-30T11:57:09;14.18;;;7.90;;
62740;SDS011;48790;55.656;37.702;2023-09-30T11:59:36;14.70;;;7.22;;
62740;SDS011;48790;55.656;37.702;2023-09-30T12:02:03;13.30;;;7.60;;
62740;SDS011;48790;55.656;37.702;2023-09-30T12:04:31;14.77;;;8.10;;
62740;SDS011;48790;55.656;37.702;2023-09-30T12:06:57;17.30;;;7.47;;
62740;SDS011;48790;55.656;37.702;2023-09-30T12:09:23;12.48;;;7.57;;
62740;SDS011;48790;55.656;37.702;2023-09-30T12:11:53;15.40;;;7.05;;
62740;SDS011;48790;55.656;37.702;2023-09-30T12:14:20;15.85;;;8.30;;
62740;SDS011;48790;55.656;37.702;2023-09-30T12:16:48;10.02;;;7.13;;
62740;SDS011;48790;55.656;37.702;2023-09-30T12:19:16;21.55;;;7.40;;
62740;SDS011;48790;55.656;37.702;2023-09-30T12:21:44;19.73;;;7.65;;
62740;SDS011;48790;55.656;37.702;2023-09-30T12:24:14;16.15;;;7.85;;
62740;SDS011;48790;55.656;37.702;2023-09-30T12:26:48;10.70;;;7.47;;
62740;SDS011;48790;55.656;37.702;2023-09-30T12:29:17;14.75;;;7.78;;
62740;SDS011;48790;55.656;37.702;2023-09-30T12:31:45;16.13;;;7.97;;
62740;SDS011;48790;55.656;37.702;2023-09-30T12:34:12;16.92;;;7.78;;
62740;SDS011;48790;55.656;37.702;2023-09-30T12:36:41;15.88;;;7.55;;
62740;SDS011;48790;55.656;37.702;2023-09-30T12:39:08;13.82;;;7.43;;
62740;SDS011;48790;55.656;37.702;2023-09-30T12:41:42;15.15;;;7.35;;
62740;SDS011;48790;55.656;37.702;2023-09-30T12:44:09;14.95;;;7.70;;
62740;SDS011;48790;55.656;37.702;2023-09-30T12:46:36;12.13;;;7.10;;
62740;SDS011;48790;55.656;37.702;2023-09-30T12:49:05;13.57;;;7.88;;
62740;SDS011;48790;55.656;37.702;2023-09-30T12:51:35;14.48;;;7.78;;
62740;SDS011;48790;55.656;37.702;2023-09-30T12:54:04;19.40;;;8.10;;
62740;SDS011;48790;55.656;37.702;2023-09-30T12:56:30;10.90;;;6.82;;
62740;SDS011;48790;55.656;37.702;2023-09-30T12:58:58;12.02;;;6.82;;
62740;SDS011;48790;55.656;37.702;2023-09-30T13:01:24;15.50;;;7.47;;
62740;SDS011;48790;55.656;37.702;2023-09-30T13:03:51;13.43;;;8.57;;
62740;SDS011;48790;55.656;37.702;2023-09-30T13:06:18;14.43;;;7.97;;
62740;SDS011;48790;55.656;37.702;2023-09-30T13:08:45;13.52;;;7.85;;
62740;SDS011;48790;55.656;37.702;2023-09-30T13:11:14;18.13;;;7.60;;
62740;SDS011;48790;55.656;37.702;2023-09-30T13:13:40;16.33;;;7.82;;
62740;SDS011;48790;55.656;37.702;2023-09-30T13:16:09;12.48;;;7.65;;
62740;SDS011;48790;55.656;37.702;2023-09-30T13:18:36;12.63;;;8.07;;
62740;SDS011;48790;55.656;37.702;2023-09-30T13:21:08;17.98;;;8.07;;
62740;SDS011;48790;55.656;37.702;2023-09-30T13:23:34;16.73;;;7.18;;
62740;SDS011;48790;55.656;37.702;2023-09-30T13:26:00;19.05;;;8.15;;
62740;SDS011;48790;55.656;37.702;2023-09-30T13:28:27;15.38;;;7.72;;
62740;SDS011;48790;55.656;37.702;2023-09-30T13:30:54;27.17;;;8.65;;
62740;SDS011;48790;55.656;37.702;2023-09-30T13:33:20;16.90;;;8.02;;
62740;SDS011;48790;55.656;37.702;2023-09-30T13:35:46;15.35;;;7.88;;
62740;SDS011;48790;55.656;37.702;2023-09-30T13:38:15;16.77;;;7.90;;
62740;SDS011;48790;55.656;37.702;2023-09-30T13:40:42;19.55;;;8.38;;
62740;SDS011;48790;55.656;37.702;2023-09-30T13:43:11;17.23;;;7.88;;
62740;SDS011;48790;55.656;37.702;2023-09-30T13:45:37;20.02;;;7.63;;
62740;SDS011;48790;55.656;37.702;2023-09-30T13:48:05;17.10;;;7.65;;
62740;SDS011;48790;55.656;37.702;2023-09-30T13:50:36;13.77;;;7.35;;
62740;SDS011;48790;55.656;37.702;2023-09-30T13:53:05;19.60;;;7.85;;
62740;SDS011;48790;55.656;37.702;2023-09-30T13:55:31;15.57;;;8.13;;
62740;SDS011;48790;55.656;37.702;2023-09-30T13:57:57;15.00;;;7.47;;
62740;SDS011;48790;55.656;37.702;2023-09-30T14:00:24;17.75;;;7.50;;
62740;SDS011;48790;55.656;37.702;2023-09-30T14:02:50;23.55;;;7.97;;
62740;SDS011;48790;55.656;37.702;2023-09-30T14:05:17;11.90;;;7.60;;
62740;SDS011;48790;55.656;37.702;2023-09-30T14:07:43;16.33;;;8.18;;
62740;SDS011;48790;55.656;37.702;2023-09-30T14:10:09;19.77;;;7.53;;
62740;SDS011;48790;55.656;37.702;2023-09-30T14:12:36;15.60;;;8.23;;
62740;SDS011;48790;55.656;37.702;2023-09-30T14:15:05;20.30;;;8.15;;
62740;SDS011;48790;55.656;37.702;2023-09-30T14:17:31;22.02;;;8.35;;
62740;SDS011;48790;55.656;37.702;2023-09-30T14:19:57;18.05;;;8.32;;
62740;SDS011;48790;55.656;37.702;2023-09-30T14:22:24;15.10;;;7.95;;
62740;SDS011;48790;55.656;37.702;2023-09-30T14:24:50;15.05;;;7.80;;
62740;SDS011;48790;55.656;37.702;2023-09-30T14:27:16;25.10;;;8.20;;
62740;SDS011;48790;55.656;37.702;2023-09-30T14:29:42;15.73;;;7.70;;
62740;SDS011;48790;55.656;37.702;2023-09-30T14:32:08;15.52;;;8.00;;
62740;SDS011;48790;55.656;37.702;2023-09-30T14:34:37;14.10;;;8.00;;
62740;SDS011;48790;55.656;37.702;2023-09-30T14:37:03;15.80;;;8.13;;
62740;SDS011;48790;55.656;37.702;2023-09-30T14:39:28;16.70;;;8.48;;
62740;SDS011;48790;55.656;37.702;2023-09-30T14:41:54;21.05;;;9.25;;
62740;SDS011;48790;55.656;37.702;2023-09-30T14:44:20;18.75;;;8.27;;
62740;SDS011;48790;55.656;37.702;2023-09-30T14:46:49;18.95;;;8.25;;
62740;SDS011;48790;55.656;37.702;2023-09-30T14:49:15;15.30;;;8.45;;
62740;SDS011;48790;55.656;37.702;2023-09-30T14:51:41;24.27;;;8.73;;
62740;SDS011;48790;55.656;37.702;2023-09-30T14:54:07;21.20;;;9.13;;